Terminal Aerodrome Forecast
Issued by NWS

Home | Current Version | Previous Version | Text Only | Print | Product List | Glossary Off
Versions: 1 2 3 4 5 6 7 8 9 10 11 12 13 14 15 16 17 18 19

000
FTUS42 KMHX 231700
TAFPGV
TAF
KPGV 231720Z 2318/2418 03004KT P6SM -RA SCT040 BKN060
     FM232200 13008KT 5SM -RA BKN030
     FM240200 14015G20KT 3SM RA BKN020
     FM240600 20010G15KT 3SM RA BKN020
      TEMPO 2406/2409 2SM TSRA OVC020CB
     FM240900 20010G15KT 5SM SHRA BR OVC030
     FM241700 22010G15KT P6SM OVC040
      AMD LTD TO CLD VIS AND WIND=

USA.gov is the U.S. government's official web portal to all federal, state and local government web resources and services.